createdAt,value
2023-03-17T00:01:14.509Z,7.00
2023-03-17T00:03:42.612Z,7.50
2023-03-17T00:06:29.751Z,7.63
2023-03-17T00:08:58.868Z,7.43
2023-03-17T00:11:27.400Z,7.57
2023-03-17T00:13:55.698Z,7.50
2023-03-17T00:16:25.445Z,7.20
2023-03-17T00:18:56.749Z,6.97
2023-03-17T00:21:32.231Z,7.10
2023-03-17T00:23:59.635Z,7.27
2023-03-17T00:26:27.516Z,6.77
2023-03-17T00:28:55.202Z,7.83
2023-03-17T00:31:24.280Z,7.40
2023-03-17T00:33:54.171Z,7.80
2023-03-17T00:36:23.887Z,6.73
2023-03-17T00:38:52.623Z,7.67
2023-03-17T00:41:20.449Z,7.13
2023-03-17T00:43:47.643Z,6.90
2023-03-17T00:46:21.741Z,7.97
2023-03-17T00:48:50.103Z,7.43
2023-03-17T00:51:17.407Z,7.40
2023-03-17T00:53:45.666Z,7.20
2023-03-17T00:56:17.322Z,7.33
2023-03-17T00:58:45.029Z,6.97
2023-03-17T01:01:12.671Z,6.37
2023-03-17T01:03:41.545Z,7.40
2023-03-17T01:06:11.019Z,7.13
2023-03-17T01:08:39.280Z,7.50
2023-03-17T01:11:14.905Z,6.07
2023-03-17T01:13:42.688Z,6.80
2023-03-17T01:16:11.767Z,7.53
2023-03-17T01:18:39.560Z,6.97
2023-03-17T01:21:07.983Z,6.90
2023-03-17T01:23:36.486Z,7.60
2023-03-17T01:26:03.746Z,7.60
2023-03-17T01:28:32.541Z,7.23
2023-03-17T01:31:02.973Z,7.87
2023-03-17T01:33:31.084Z,6.73
2023-03-17T01:35:58.310Z,7.00
2023-03-17T01:38:27.344Z,7.50
2023-03-17T01:40:56.637Z,6.90
2023-03-17T01:43:29.344Z,6.50
2023-03-17T01:46:16.166Z,7.70
2023-03-17T01:48:47.490Z,6.80
2023-03-17T01:51:24.092Z,7.70
2023-03-17T01:53:52.763Z,6.50
2023-03-17T01:56:20.291Z,6.80
2023-03-17T01:58:51.548Z,7.33
2023-03-17T02:01:21.067Z,6.77
2023-03-17T02:03:50.854Z,5.97
2023-03-17T02:06:19.546Z,6.40
2023-03-17T02:08:47.803Z,7.40
2023-03-17T02:11:15.403Z,6.60
2023-03-17T02:13:44.617Z,7.20
2023-03-17T02:16:18.738Z,6.80
2023-03-17T02:18:47.885Z,7.77
2023-03-17T02:21:31.850Z,7.20
2023-03-17T02:24:01.544Z,7.37
2023-03-17T02:26:30.317Z,7.13
2023-03-17T02:28:57.463Z,8.10
2023-03-17T02:31:25.892Z,7.30
2023-03-17T02:33:53.192Z,7.63
2023-03-17T02:36:22.929Z,7.33
2023-03-17T02:38:50.200Z,8.00
2023-03-17T02:41:17.583Z,7.93
2023-03-17T02:43:44.878Z,7.23
2023-03-17T02:46:12.115Z,7.47
2023-03-17T02:48:39.493Z,7.57
2023-03-17T02:51:07.081Z,7.43
2023-03-17T02:53:34.427Z,7.30
2023-03-17T02:56:02.175Z,7.10
2023-03-17T02:58:29.891Z,7.70
2023-03-17T03:00:57.069Z,7.47
2023-03-17T03:03:24.472Z,7.90
2023-03-17T03:05:51.906Z,6.87
2023-03-17T03:08:19.196Z,7.07
2023-03-17T03:10:46.675Z,8.93
2023-03-17T03:13:13.886Z,6.60
2023-03-17T03:15:42.019Z,8.03
2023-03-17T03:18:09.769Z,7.10
2023-03-17T03:20:37.104Z,7.60
2023-03-17T03:23:06.127Z,6.60
2023-03-17T03:25:34.051Z,7.00
2023-03-17T03:28:01.288Z,6.90
2023-03-17T03:30:28.907Z,8.20
2023-03-17T03:32:56.667Z,7.50
2023-03-17T03:35:23.971Z,7.63
2023-03-17T03:37:51.348Z,7.70
2023-03-17T03:40:18.716Z,7.97
2023-03-17T03:42:46.682Z,7.77
2023-03-17T03:45:13.937Z,7.60
2023-03-17T03:47:42.084Z,7.23
2023-03-17T03:50:10.723Z,8.27
2023-03-17T03:52:38.350Z,7.77
2023-03-17T03:55:06.713Z,7.70
2023-03-17T03:57:33.961Z,7.77
2023-03-17T04:00:01.565Z,7.67
2023-03-17T04:02:39.982Z,7.20
2023-03-17T04:05:09.590Z,7.87
2023-03-17T04:07:37.657Z,7.40
2023-03-17T04:10:06.293Z,7.70
2023-03-17T04:12:33.495Z,8.20
2023-03-17T04:15:02.309Z,7.80
2023-03-17T04:17:29.523Z,7.70
2023-03-17T04:19:57.107Z,7.47
2023-03-17T04:22:24.677Z,7.90
2023-03-17T04:24:52.116Z,8.20
2023-03-17T04:27:19.341Z,7.23
2023-03-17T04:29:47.500Z,7.80
2023-03-17T04:32:15.935Z,8.77
2023-03-17T04:34:43.928Z,7.07
2023-03-17T04:37:11.612Z,8.30
2023-03-17T04:39:39.257Z,7.97
2023-03-17T04:42:07.501Z,7.47
2023-03-17T04:44:34.881Z,7.03
2023-03-17T04:47:02.096Z,6.47
2023-03-17T04:49:31.570Z,8.50
2023-03-17T04:51:58.760Z,7.63
2023-03-17T04:54:26.111Z,7.37
2023-03-17T04:56:53.323Z,8.27
2023-03-17T04:59:20.960Z,7.53
2023-03-17T05:01:48.120Z,8.20
2023-03-17T05:04:28.822Z,7.43
2023-03-17T05:06:58.287Z,9.33
2023-03-17T05:09:26.716Z,8.40
2023-03-17T05:11:53.949Z,8.03
2023-03-17T05:14:21.816Z,9.00
2023-03-17T05:16:49.217Z,7.90
2023-03-17T05:19:17.514Z,8.10
2023-03-17T05:21:45.410Z,8.20
2023-03-17T05:24:13.069Z,7.80
2023-03-17T05:26:40.889Z,9.17
2023-03-17T05:29:08.943Z,8.00
2023-03-17T05:31:36.361Z,9.10
2023-03-17T05:34:06.203Z,10.67
2023-03-17T05:36:33.577Z,8.90
2023-03-17T05:39:01.865Z,8.43
2023-03-17T05:41:29.483Z,8.80
2023-03-17T05:43:56.871Z,8.40
2023-03-17T05:46:24.141Z,7.53
2023-03-17T05:48:52.314Z,8.77
2023-03-17T05:51:20.630Z,8.60
2023-03-17T05:53:47.903Z,8.43
2023-03-17T05:56:16.038Z,11.67
2023-03-17T05:58:43.380Z,11.50
2023-03-17T06:01:10.559Z,9.33
2023-03-17T06:03:41.213Z,8.80
2023-03-17T06:06:09.536Z,9.10
2023-03-17T06:08:36.837Z,9.87
2023-03-17T06:11:04.135Z,10.37
2023-03-17T06:13:31.326Z,9.50
2023-03-17T06:15:58.521Z,9.17
2023-03-17T06:18:25.893Z,8.83
2023-03-17T06:20:53.319Z,10.80
2023-03-17T06:23:20.802Z,10.27
2023-03-17T06:25:47.959Z,9.77
2023-03-17T06:28:17.381Z,9.57
2023-03-17T06:30:47.149Z,8.63
2023-03-17T06:33:19.137Z,9.37
2023-03-17T06:35:46.733Z,8.00
2023-03-17T06:38:16.141Z,12.10
2023-03-17T06:40:43.344Z,10.43
2023-03-17T06:43:10.893Z,9.83
2023-03-17T06:45:38.029Z,9.30
2023-03-17T06:48:05.369Z,9.57
2023-03-17T06:50:33.101Z,9.60
2023-03-17T06:53:00.405Z,9.07
2023-03-17T06:55:27.588Z,9.67
2023-03-17T06:57:54.777Z,9.67
2023-03-17T07:00:22.928Z,10.23
2023-03-17T07:02:50.109Z,10.40
2023-03-17T07:05:17.824Z,10.10
2023-03-17T07:07:45.009Z,10.70
2023-03-17T07:10:13.652Z,10.00
2023-03-17T07:12:41.286Z,9.57
2023-03-17T07:15:09.455Z,9.60
2023-03-17T07:17:36.703Z,10.17
2023-03-17T07:20:04.050Z,9.70
2023-03-17T07:22:31.222Z,10.20
2023-03-17T07:24:58.557Z,9.80
2023-03-17T07:27:26.388Z,8.60
2023-03-17T07:29:54.216Z,8.70
2023-03-17T07:32:21.477Z,10.00
2023-03-17T07:34:49.243Z,9.57
2023-03-17T07:37:17.584Z,8.30
2023-03-17T07:39:47.108Z,9.47
2023-03-17T07:42:15.371Z,9.97
2023-03-17T07:44:42.715Z,8.97
2023-03-17T07:47:11.255Z,8.57
2023-03-17T07:49:41.956Z,8.50
2023-03-17T07:52:10.497Z,7.60
2023-03-17T07:54:38.075Z,9.10
2023-03-17T07:57:06.316Z,8.30
2023-03-17T07:59:33.920Z,8.00
2023-03-17T08:02:01.340Z,9.93
2023-03-17T08:04:29.258Z,9.40
2023-03-17T08:06:57.686Z,10.23
2023-03-17T08:09:26.469Z,8.10
2023-03-17T08:11:53.671Z,9.73
2023-03-17T08:14:21.199Z,8.80
2023-03-17T08:16:48.483Z,9.10
2023-03-17T08:19:16.990Z,8.00
2023-03-17T08:21:44.452Z,8.40
2023-03-17T08:24:11.940Z,9.10
2023-03-17T08:26:39.416Z,8.57
2023-03-17T08:29:07.907Z,8.67
2023-03-17T08:31:35.725Z,7.53
2023-03-17T08:34:03.072Z,6.80
2023-03-17T08:36:30.615Z,6.90
2023-03-17T08:38:57.865Z,6.73
2023-03-17T08:41:27.378Z,7.10
2023-03-17T08:43:56.177Z,7.07
2023-03-17T08:46:24.879Z,7.10
2023-03-17T08:48:52.708Z,6.43
2023-03-17T08:51:23.692Z,6.53
2023-03-17T08:53:52.280Z,7.10
2023-03-17T08:56:19.694Z,7.47
2023-03-17T08:58:47.552Z,6.97
2023-03-17T09:01:15.233Z,7.40
2023-03-17T09:03:42.893Z,6.23
2023-03-17T09:06:12.590Z,6.03
2023-03-17T09:08:46.585Z,6.70
2023-03-17T09:11:16.388Z,6.70
2023-03-17T09:13:44.272Z,6.73
2023-03-17T09:16:11.581Z,6.53
2023-03-17T09:18:39.178Z,6.40
2023-03-17T09:21:06.892Z,7.27
2023-03-17T09:23:34.168Z,6.27
2023-03-17T09:26:02.192Z,5.90
2023-03-17T09:28:29.423Z,6.17
2023-03-17T09:31:01.124Z,5.60
2023-03-17T09:33:28.714Z,6.77
2023-03-17T09:35:59.292Z,6.20
2023-03-17T09:38:27.810Z,6.77
2023-03-17T09:40:55.541Z,6.23
2023-03-17T09:43:24.335Z,6.87
2023-03-17T09:45:52.487Z,7.17
2023-03-17T09:48:33.523Z,6.83
2023-03-17T09:51:05.746Z,6.10
2023-03-17T09:53:35.929Z,6.63
2023-03-17T09:56:06.812Z,6.10
2023-03-17T09:58:34.981Z,7.10
2023-03-17T10:01:05.764Z,6.43
2023-03-17T10:03:34.005Z,6.20
2023-03-17T10:06:21.723Z,5.70
2023-03-17T10:08:58.233Z,6.23
2023-03-17T10:11:35.811Z,6.07
2023-03-17T10:14:05.110Z,6.50
2023-03-17T10:16:38.736Z,6.67
2023-03-17T10:19:21.082Z,7.00
2023-03-17T10:21:51.446Z,6.70
2023-03-17T10:24:19.772Z,6.47
2023-03-17T10:26:49.609Z,6.63
2023-03-17T10:29:22.370Z,7.03
2023-03-17T10:31:49.729Z,6.37
2023-03-17T10:34:18.461Z,5.43
2023-03-17T10:36:51.629Z,6.10
2023-03-17T10:39:20.636Z,6.60
2023-03-17T10:41:58.113Z,5.90
2023-03-17T10:44:35.742Z,4.90
2023-03-17T10:47:03.962Z,5.30
2023-03-17T10:49:35.937Z,5.67
2023-03-17T10:52:07.598Z,5.57
2023-03-17T10:54:36.977Z,6.00
2023-03-17T10:57:07.735Z,5.43
2023-03-17T10:59:40.183Z,5.20
2023-03-17T11:02:18.759Z,4.80
2023-03-17T11:04:46.248Z,4.77
2023-03-17T11:07:22.171Z,4.80
2023-03-17T11:09:53.061Z,4.90
2023-03-17T11:12:25.793Z,5.13
2023-03-17T11:15:05.853Z,4.80
2023-03-17T11:17:33.004Z,5.73
2023-03-17T11:20:11.820Z,5.47
2023-03-17T11:22:41.526Z,5.40
2023-03-17T11:25:19.287Z,5.17
2023-03-17T11:27:55.636Z,6.07
2023-03-17T11:30:36.405Z,6.87
2023-03-17T11:33:29.694Z,5.63
2023-03-17T11:36:15.805Z,4.70
2023-03-17T11:38:51.455Z,6.40
2023-03-17T11:41:34.962Z,5.67
2023-03-17T11:44:18.524Z,5.90
2023-03-17T11:46:56.450Z,5.27
2023-03-17T11:49:34.508Z,5.40
2023-03-17T11:52:26.754Z,4.87
2023-03-17T11:55:00.573Z,8.10
2023-03-17T11:57:32.487Z,5.73
2023-03-17T12:00:02.561Z,7.33
2023-03-17T12:02:44.045Z,4.80
2023-03-17T12:05:12.252Z,4.50
2023-03-17T12:07:44.841Z,5.10
2023-03-17T12:10:31.303Z,4.63
2023-03-17T12:13:04.388Z,4.63
2023-03-17T12:15:36.193Z,6.27
2023-03-17T12:18:06.737Z,4.80
2023-03-17T12:20:48.950Z,4.50
2023-03-17T12:23:29.788Z,4.70
2023-03-17T12:26:06.704Z,4.23
2023-03-17T12:28:41.139Z,4.20
2023-03-17T12:31:10.547Z,4.97
2023-03-17T12:33:48.424Z,4.53
2023-03-17T12:36:17.527Z,4.90
2023-03-17T12:38:52.818Z,4.60
2023-03-17T12:41:49.469Z,4.53
2023-03-17T12:44:30.316Z,4.83
2023-03-17T12:47:17.603Z,4.73
2023-03-17T12:49:47.818Z,4.87
2023-03-17T12:52:17.977Z,4.57
2023-03-17T12:54:49.878Z,4.63
2023-03-17T12:57:21.698Z,4.70
2023-03-17T12:59:59.276Z,4.53
2023-03-17T13:02:29.479Z,4.43
2023-03-17T13:05:00.794Z,4.40
2023-03-17T13:07:34.251Z,4.43
2023-03-17T13:10:01.422Z,5.27
2023-03-17T13:12:44.326Z,3.77
2023-03-17T13:15:30.674Z,5.00
2023-03-17T13:18:16.179Z,4.30
2023-03-17T13:20:45.578Z,4.37
2023-03-17T13:23:14.357Z,4.50
2023-03-17T13:25:41.745Z,4.80
2023-03-17T13:28:12.166Z,4.23
2023-03-17T13:30:39.393Z,4.50
2023-03-17T13:33:15.675Z,4.03
2023-03-17T13:35:45.717Z,4.13
2023-03-17T13:38:39.385Z,4.00
2023-03-17T13:41:15.516Z,4.43
2023-03-17T13:43:48.939Z,4.37
2023-03-17T13:46:21.406Z,4.77
2023-03-17T13:48:49.565Z,4.00
2023-03-17T13:51:24.525Z,4.77
2023-03-17T13:53:56.854Z,5.10
2023-03-17T13:56:24.101Z,4.00
2023-03-17T13:58:51.397Z,4.73
2023-03-17T14:01:18.675Z,3.93
2023-03-17T14:03:50.546Z,6.80
2023-03-17T14:06:20.014Z,6.67
2023-03-17T14:08:55.871Z,7.07
2023-03-17T14:11:35.405Z,6.80
2023-03-17T14:14:05.880Z,7.30
2023-03-17T14:16:35.381Z,7.23
2023-03-17T14:19:11.771Z,7.13
2023-03-17T14:21:40.667Z,7.73
2023-03-17T14:24:19.700Z,7.30
2023-03-17T14:26:48.140Z,7.13
2023-03-17T14:29:16.796Z,7.20
2023-03-17T14:31:49.808Z,7.07
2023-03-17T14:34:22.732Z,6.70
2023-03-17T14:36:52.312Z,8.47
2023-03-17T14:39:21.928Z,8.53
2023-03-17T14:41:57.487Z,8.40
2023-03-17T14:44:24.670Z,6.50
2023-03-17T14:47:01.047Z,7.60
2023-03-17T14:49:28.879Z,6.20
2023-03-17T14:51:58.418Z,6.63
2023-03-17T14:54:27.695Z,5.93
2023-03-17T14:57:02.194Z,6.50
2023-03-17T14:59:34.873Z,7.57
2023-03-17T15:02:03.414Z,6.20
2023-03-17T15:04:31.972Z,6.17
2023-03-17T15:07:07.607Z,7.03
2023-03-17T15:09:34.832Z,5.90
2023-03-17T15:12:22.367Z,5.47
2023-03-17T15:14:52.802Z,5.50
2023-03-17T15:17:21.431Z,5.50
2023-03-17T15:19:50.638Z,5.27
2023-03-17T15:22:25.760Z,4.60
2023-03-17T15:25:00.199Z,4.00
2023-03-17T15:27:28.440Z,6.00
2023-03-17T15:29:56.414Z,5.63
2023-03-17T15:32:25.013Z,4.50
2023-03-17T15:34:53.248Z,6.03
2023-03-17T15:37:28.225Z,5.33
2023-03-17T15:39:56.775Z,4.10
2023-03-17T15:42:25.275Z,5.13
2023-03-17T15:44:53.638Z,4.50
2023-03-17T15:47:22.298Z,4.97
2023-03-17T15:49:50.949Z,3.93
2023-03-17T15:52:18.153Z,4.60
2023-03-17T15:54:47.224Z,5.50
2023-03-17T15:57:14.641Z,4.83
2023-03-17T15:59:41.917Z,4.20
2023-03-17T16:02:15.843Z,5.20
2023-03-17T16:04:43.092Z,3.80
2023-03-17T16:07:12.847Z,5.30
2023-03-17T16:09:40.364Z,5.33
2023-03-17T16:12:11.515Z,4.40
2023-03-17T16:14:38.948Z,4.40
2023-03-17T16:17:06.984Z,5.30
2023-03-17T16:19:34.706Z,4.60
2023-03-17T16:22:01.925Z,5.30
2023-03-17T16:24:29.076Z,5.90
2023-03-17T16:26:58.637Z,7.23
2023-03-17T16:29:25.899Z,7.07
2023-03-17T16:31:53.114Z,6.43
2023-03-17T16:34:22.220Z,6.97
2023-03-17T16:36:50.468Z,7.63
2023-03-17T16:39:23.370Z,7.63
2023-03-17T16:41:53.432Z,7.50
2023-03-17T16:44:21.465Z,8.27
2023-03-17T16:46:49.433Z,9.43
2023-03-17T16:49:19.285Z,9.23
2023-03-17T16:51:47.389Z,8.43
2023-03-17T16:54:16.127Z,9.17
2023-03-17T16:56:43.416Z,10.40
2023-03-17T16:59:12.682Z,9.70
2023-03-17T17:01:39.998Z,10.80
2023-03-17T17:04:11.037Z,9.10
2023-03-17T17:06:38.268Z,8.23
2023-03-17T17:09:05.962Z,8.70
2023-03-17T17:11:34.148Z,8.57
2023-03-17T17:14:02.012Z,7.87
2023-03-17T17:16:31.025Z,7.60
2023-03-17T17:18:59.445Z,9.70
2023-03-17T17:21:30.075Z,9.97
2023-03-17T17:23:58.523Z,11.33
2023-03-17T17:26:26.107Z,9.57
2023-03-17T17:28:54.662Z,9.17
2023-03-17T17:31:22.874Z,9.50
2023-03-17T17:33:50.617Z,10.33
2023-03-17T17:36:18.040Z,10.23
2023-03-17T17:38:45.407Z,9.30
2023-03-17T17:41:14.239Z,11.80
2023-03-17T17:43:43.817Z,11.67
2023-03-17T17:46:16.863Z,9.60
2023-03-17T17:48:44.255Z,9.03
2023-03-17T17:51:12.106Z,11.00
2023-03-17T17:53:39.654Z,11.37
2023-03-17T17:56:07.625Z,9.80
2023-03-17T17:58:35.639Z,9.80
2023-03-17T18:01:05.973Z,12.20
2023-03-17T18:03:35.152Z,11.37
2023-03-17T18:06:04.491Z,13.93
2023-03-17T18:08:31.681Z,12.57
2023-03-17T18:10:59.113Z,12.13
2023-03-17T18:13:26.834Z,12.30
2023-03-17T18:15:54.625Z,11.10
2023-03-17T18:18:22.042Z,10.27
2023-03-17T18:20:49.204Z,10.23
2023-03-17T18:23:17.438Z,10.70
2023-03-17T18:25:45.395Z,11.20
2023-03-17T18:28:13.049Z,12.10
2023-03-17T18:30:41.470Z,12.23
2023-03-17T18:33:14.048Z,13.60
2023-03-17T18:35:42.618Z,13.00
2023-03-17T18:38:09.841Z,14.87
2023-03-17T18:40:38.144Z,13.70
2023-03-17T18:43:06.267Z,13.30
2023-03-17T18:45:34.308Z,12.80
2023-03-17T18:48:02.192Z,12.53
2023-03-17T18:50:29.592Z,13.50
2023-03-17T18:52:58.207Z,13.77
2023-03-17T18:55:25.786Z,13.27
2023-03-17T18:57:54.774Z,12.47
2023-03-17T19:00:25.072Z,12.93
2023-03-17T19:02:52.986Z,11.20
2023-03-17T19:05:20.845Z,13.30
2023-03-17T19:07:49.790Z,13.37
2023-03-17T19:10:17.909Z,14.17
2023-03-17T19:12:47.116Z,12.70
2023-03-17T19:15:15.149Z,12.83
2023-03-17T19:17:42.881Z,12.80
2023-03-17T19:20:10.715Z,15.80
2023-03-17T19:22:38.086Z,10.30
2023-03-17T19:25:08.512Z,11.80
2023-03-17T19:27:35.972Z,13.57
2023-03-17T19:30:03.834Z,13.27
2023-03-17T19:32:31.594Z,14.10
2023-03-17T19:34:58.842Z,12.50
2023-03-17T19:37:26.127Z,13.07
2023-03-17T19:39:53.928Z,14.67
2023-03-17T19:42:21.986Z,14.40
2023-03-17T19:44:49.811Z,12.80
2023-03-17T19:47:17.325Z,12.60
2023-03-17T19:49:44.798Z,14.00
2023-03-17T19:52:12.095Z,14.30
2023-03-17T19:54:44.561Z,12.03
2023-03-17T19:57:13.120Z,12.80
2023-03-17T19:59:40.976Z,13.60
2023-03-17T20:02:08.347Z,14.00
2023-03-17T20:04:37.348Z,14.43
2023-03-17T20:07:08.199Z,13.20
2023-03-17T20:09:40.462Z,16.60
2023-03-17T20:12:07.796Z,17.20
2023-03-17T20:14:35.284Z,19.63
2023-03-17T20:17:02.533Z,14.57
2023-03-17T20:19:30.111Z,15.70
2023-03-17T20:21:58.467Z,13.43
2023-03-17T20:24:28.978Z,14.10
2023-03-17T20:26:57.906Z,12.47
2023-03-17T20:29:26.899Z,13.40
2023-03-17T20:31:54.517Z,11.97
2023-03-17T20:34:22.766Z,11.47
2023-03-17T20:36:51.313Z,12.03
2023-03-17T20:39:22.165Z,13.20
2023-03-17T20:41:50.780Z,12.83
2023-03-17T20:44:18.411Z,11.90
2023-03-17T20:46:45.966Z,12.80
2023-03-17T20:49:15.735Z,12.97
2023-03-17T20:51:43.648Z,10.40
2023-03-17T20:54:11.051Z,11.67
2023-03-17T20:56:39.807Z,11.50
2023-03-17T20:59:13.655Z,11.80
2023-03-17T21:01:42.418Z,12.83
2023-03-17T21:04:09.819Z,11.47
2023-03-17T21:06:38.356Z,11.57
2023-03-17T21:09:05.977Z,12.10
2023-03-17T21:11:33.319Z,10.67
2023-03-17T21:14:03.182Z,13.10
2023-03-17T21:16:31.154Z,12.03
2023-03-17T21:18:58.939Z,12.80
2023-03-17T21:21:26.979Z,11.83
2023-03-17T21:23:55.307Z,11.93
2023-03-17T21:26:23.112Z,12.80
2023-03-17T21:28:50.342Z,11.63
2023-03-17T21:31:17.590Z,12.50
2023-03-17T21:33:44.861Z,13.10
2023-03-17T21:36:12.279Z,12.20
2023-03-17T21:38:40.215Z,11.70
2023-03-17T21:41:27.845Z,12.03
2023-03-17T21:43:55.195Z,12.37
2023-03-17T21:46:22.372Z,13.03
2023-03-17T21:48:50.109Z,11.90
2023-03-17T21:51:17.832Z,12.33
2023-03-17T21:53:46.614Z,13.50
2023-03-17T21:56:14.314Z,11.63
2023-03-17T21:58:42.968Z,12.70
2023-03-17T22:01:10.205Z,12.97
2023-03-17T22:03:39.812Z,12.20
2023-03-17T22:06:07.442Z,12.33
2023-03-17T22:08:34.736Z,12.60
2023-03-17T22:11:06.458Z,12.50
2023-03-17T22:13:33.685Z,15.30
2023-03-17T22:16:01.413Z,15.40
2023-03-17T22:18:28.734Z,13.67
2023-03-17T22:20:57.505Z,14.10
2023-03-17T22:23:25.528Z,11.23
2023-03-17T22:25:53.233Z,12.50
2023-03-17T22:28:20.443Z,11.83
2023-03-17T22:30:47.641Z,12.43
2023-03-17T22:33:14.922Z,11.60
2023-03-17T22:35:42.334Z,11.73
2023-03-17T22:38:11.202Z,12.30
2023-03-17T22:40:38.409Z,11.70
2023-03-17T22:43:05.587Z,12.50
2023-03-17T22:45:32.788Z,12.20
2023-03-17T22:48:00.016Z,12.03
2023-03-17T22:50:27.732Z,11.87
2023-03-17T22:52:56.123Z,13.97
2023-03-17T22:55:23.434Z,14.37
2023-03-17T22:57:50.693Z,13.13
2023-03-17T23:00:18.200Z,13.43
2023-03-17T23:02:46.298Z,12.40
2023-03-17T23:05:14.382Z,13.17
2023-03-17T23:07:50.423Z,13.00
2023-03-17T23:10:21.929Z,13.23
2023-03-17T23:12:50.676Z,14.73
2023-03-17T23:15:18.727Z,13.93
2023-03-17T23:17:46.919Z,12.00
2023-03-17T23:20:14.987Z,14.33
2023-03-17T23:22:42.166Z,12.33
2023-03-17T23:25:09.631Z,13.17
2023-03-17T23:27:36.776Z,12.83
2023-03-17T23:30:06.014Z,13.03
2023-03-17T23:32:34.134Z,12.20
2023-03-17T23:35:01.385Z,12.30
2023-03-17T23:37:28.814Z,12.47
2023-03-17T23:39:56.343Z,10.70
2023-03-17T23:42:23.474Z,12.70
2023-03-17T23:44:51.547Z,11.50
2023-03-17T23:47:20.492Z,10.70
2023-03-17T23:49:47.752Z,11.73
2023-03-17T23:52:15.376Z,12.00
2023-03-17T23:54:43.929Z,11.70
2023-03-17T23:57:11.118Z,11.87
2023-03-17T23:59:38.299Z,11.10
